sensor_id;sensor_type;location;lat;lon;timestamp;pressure;altitude;pressure_sealevel;temperature;humidity
39681;BME280;26327;42.550;23.120;2023-05-23T00:01:34;92606.56;;;12.68;95.68
39681;BME280;26327;42.550;23.120;2023-05-23T00:04:05;92689.50;;;13.45;94.63
39681;BME280;26327;42.550;23.120;2023-05-23T00:06:31;92708.19;;;13.42;94.07
39681;BME280;26327;42.550;23.120;2023-05-23T00:08:56;92708.97;;;13.63;92.16
39681;BME280;26327;42.550;23.120;2023-05-23T00:11:22;92629.06;;;13.22;90.96
39681;BME280;26327;42.550;23.120;2023-05-23T00:13:52;92690.72;;;13.30;92.18
39681;BME280;26327;42.550;23.120;2023-05-23T00:16:18;92670.72;;;12.76;94.02
39681;BME280;26327;42.550;23.120;2023-05-23T00:18:44;92681.84;;;12.37;96.90
39681;BME280;26327;42.550;23.120;2023-05-23T00:21:10;92542.94;;;11.75;96.42
39681;BME280;26327;42.550;23.120;2023-05-23T00:23:37;92683.56;;;12.71;96.15
39681;BME280;26327;42.550;23.120;2023-05-23T00:26:06;92695.25;;;12.95;95.23
39681;BME280;26327;42.550;23.120;2023-05-23T00:28:32;92630.66;;;12.83;93.26
39681;BME280;26327;42.550;23.120;2023-05-23T00:30:57;92598.72;;;12.48;93.29
39681;BME280;26327;42.550;23.120;2023-05-23T00:33:22;92685.50;;;12.49;95.92
39681;BME280;26327;42.550;23.120;2023-05-23T00:35:48;92652.66;;;12.54;96.18
39681;BME280;26327;42.550;23.120;2023-05-23T00:38:13;92683.22;;;12.93;93.38
39681;BME280;26327;42.550;23.120;2023-05-23T00:40:39;92608.75;;;12.51;93.01
39681;BME280;26327;42.550;23.120;2023-05-23T00:43:05;92618.78;;;12.74;91.40
39681;BME280;26327;42.550;23.120;2023-05-23T00:45:30;92669.59;;;13.05;91.07
39681;BME280;26327;42.550;23.120;2023-05-23T00:47:56;92691.72;;;12.54;93.52
39681;BME280;26327;42.550;23.120;2023-05-23T00:50:23;92688.31;;;12.47;95.14
39681;BME280;26327;42.550;23.120;2023-05-23T00:52:50;92657.53;;;12.23;95.62
39681;BME280;26327;42.550;23.120;2023-05-23T00:55:15;92681.84;;;11.89;98.26
39681;BME280;26327;42.550;23.120;2023-05-23T00:57:41;92672.69;;;12.54;94.52
39681;BME280;26327;42.550;23.120;2023-05-23T01:00:09;92582.72;;;11.90;94.55
39681;BME280;26327;42.550;23.120;2023-05-23T01:02:42;92614.84;;;12.17;94.70
39681;BME280;26327;42.550;23.120;2023-05-23T01:05:14;92621.94;;;12.37;93.53
39681;BME280;26327;42.550;23.120;2023-05-23T01:07:42;92680.69;;;12.46;94.17
39681;BME280;26327;42.550;23.120;2023-05-23T01:10:09;92612.72;;;12.41;92.69
39681;BME280;26327;42.550;23.120;2023-05-23T01:16:06;92687.53;;;12.53;93.58
39681;BME280;26327;42.550;23.120;2023-05-23T01:18:39;92675.78;;;12.29;94.71
39681;BME280;26327;42.550;23.120;2023-05-23T01:23:56;92682.44;;;11.91;96.77
39681;BME280;26327;42.550;23.120;2023-05-23T01:29:06;92623.44;;;12.11;93.26
39681;BME280;26327;42.550;23.120;2023-05-23T01:31:36;92697.03;;;12.81;91.91
39681;BME280;26327;42.550;23.120;2023-05-23T01:34:03;92661.03;;;12.43;92.46
39681;BME280;26327;42.550;23.120;2023-05-23T01:36:28;92682.56;;;12.17;94.22
39681;BME280;26327;42.550;23.120;2023-05-23T01:38:56;92607.16;;;11.61;94.81
39681;BME280;26327;42.550;23.120;2023-05-23T01:41:21;92659.22;;;11.68;95.94
39681;BME280;26327;42.550;23.120;2023-05-23T01:43:46;92659.69;;;12.06;94.56
39681;BME280;26327;42.550;23.120;2023-05-23T01:46:12;92669.16;;;12.20;93.89
39681;BME280;26327;42.550;23.120;2023-05-23T01:48:39;92600.13;;;11.55;94.92
39681;BME280;26327;42.550;23.120;2023-05-23T01:51:05;92673.25;;;12.36;93.99
39681;BME280;26327;42.550;23.120;2023-05-23T01:53:31;92654.59;;;12.39;93.07
39681;BME280;26327;42.550;23.120;2023-05-23T01:55:57;92665.44;;;12.43;92.24
39681;BME280;26327;42.550;23.120;2023-05-23T01:58:23;92647.00;;;12.38;92.14
39681;BME280;26327;42.550;23.120;2023-05-23T02:00:48;92607.16;;;11.96;92.83
39681;BME280;26327;42.550;23.120;2023-05-23T02:03:13;92663.53;;;12.17;93.85
39681;BME280;26327;42.550;23.120;2023-05-23T02:05:40;92656.31;;;11.78;95.85
39681;BME280;26327;42.550;23.120;2023-05-23T02:08:05;92657.41;;;11.90;95.97
39681;BME280;26327;42.550;23.120;2023-05-23T02:10:30;92667.78;;;11.55;97.53
39681;BME280;26327;42.550;23.120;2023-05-23T02:12:56;92659.78;;;11.57;98.08
39681;BME280;26327;42.550;23.120;2023-05-23T02:15:21;92530.06;;;10.57;98.37
39681;BME280;26327;42.550;23.120;2023-05-23T02:17:47;92659.50;;;11.45;98.80
39681;BME280;26327;42.550;23.120;2023-05-23T02:20:12;92591.94;;;10.75;100.00
39681;BME280;26327;42.550;23.120;2023-05-23T02:22:38;92597.75;;;10.77;100.00
39681;BME280;26327;42.550;23.120;2023-05-23T02:25:04;92671.81;;;10.87;100.00
39681;BME280;26327;42.550;23.120;2023-05-23T02:27:29;92599.47;;;10.27;100.00
39681;BME280;26327;42.550;23.120;2023-05-23T02:29:55;92636.88;;;10.47;100.00
39681;BME280;26327;42.550;23.120;2023-05-23T02:32:20;92664.78;;;11.02;100.00
39681;BME280;26327;42.550;23.120;2023-05-23T02:34:46;92605.00;;;10.60;100.00
39681;BME280;26327;42.550;23.120;2023-05-23T02:37:14;92662.78;;;11.04;100.00
39681;BME280;26327;42.550;23.120;2023-05-23T02:39:41;92570.38;;;10.31;100.00
39681;BME280;26327;42.550;23.120;2023-05-23T02:42:07;92571.38;;;10.52;100.00
39681;BME280;26327;42.550;23.120;2023-05-23T02:44:32;92646.94;;;10.78;100.00
39681;BME280;26327;42.550;23.120;2023-05-23T02:46:57;92593.13;;;10.72;100.00
39681;BME280;26327;42.550;23.120;2023-05-23T02:49:23;92655.09;;;11.18;100.00
39681;BME280;26327;42.550;23.120;2023-05-23T02:51:48;92648.09;;;11.46;99.59
39681;BME280;26327;42.550;23.120;2023-05-23T02:54:14;92636.31;;;11.50;98.82
39681;BME280;26327;42.550;23.120;2023-05-23T02:56:39;92630.97;;;11.58;97.41
39681;BME280;26327;42.550;23.120;2023-05-23T02:59:05;92616.13;;;11.52;97.53
39681;BME280;26327;42.550;23.120;2023-05-23T03:01:30;92645.34;;;11.54;98.25
39681;BME280;26327;42.550;23.120;2023-05-23T03:03:56;92627.44;;;11.38;98.45
39681;BME280;26327;42.550;23.120;2023-05-23T03:06:21;92587.00;;;11.08;98.79
39681;BME280;26327;42.550;23.120;2023-05-23T03:08:47;92525.66;;;10.57;98.60
39681;BME280;26327;42.550;23.120;2023-05-23T03:11:12;92646.94;;;10.99;100.00
39681;BME280;26327;42.550;23.120;2023-05-23T03:13:38;92652.75;;;10.59;100.00
39681;BME280;26327;42.550;23.120;2023-05-23T03:16:03;92589.47;;;10.24;100.00
39681;BME280;26327;42.550;23.120;2023-05-23T03:18:29;92652.69;;;10.52;100.00
39681;BME280;26327;42.550;23.120;2023-05-23T03:20:54;92616.97;;;10.39;100.00
39681;BME280;26327;42.550;23.120;2023-05-23T03:23:20;92649.88;;;10.32;100.00
39681;BME280;26327;42.550;23.120;2023-05-23T03:25:45;92637.38;;;10.57;100.00
39681;BME280;26327;42.550;23.120;2023-05-23T03:28:10;92665.63;;;11.10;100.00
39681;BME280;26327;42.550;23.120;2023-05-23T03:30:39;92591.75;;;10.97;100.00
39681;BME280;26327;42.550;23.120;2023-05-23T03:33:05;92629.78;;;11.05;100.00
39681;BME280;26327;42.550;23.120;2023-05-23T03:35:31;92589.34;;;10.75;100.00
39681;BME280;26327;42.550;23.120;2023-05-23T03:37:57;92655.94;;;11.25;100.00
39681;BME280;26327;42.550;23.120;2023-05-23T03:40:22;92598.34;;;11.28;99.10
39681;BME280;26327;42.550;23.120;2023-05-23T03:42:50;92576.44;;;11.44;97.10
39681;BME280;26327;42.550;23.120;2023-05-23T03:45:25;92586.75;;;11.30;98.35
39681;BME280;26327;42.550;23.120;2023-05-23T03:47:50;92615.50;;;11.50;98.85
39681;BME280;26327;42.550;23.120;2023-05-23T03:50:16;92592.38;;;11.68;96.06
39681;BME280;26327;42.550;23.120;2023-05-23T03:52:41;92656.38;;;11.84;97.42
39681;BME280;26327;42.550;23.120;2023-05-23T03:55:07;92537.66;;;10.86;100.00
39681;BME280;26327;42.550;23.120;2023-05-23T03:57:33;92624.31;;;11.49;100.00
39681;BME280;26327;42.550;23.120;2023-05-23T03:59:58;92674.03;;;11.67;100.00
39681;BME280;26327;42.550;23.120;2023-05-23T04:02:24;92649.56;;;11.55;100.00
39681;BME280;26327;42.550;23.120;2023-05-23T04:04:49;92603.91;;;11.25;100.00
39681;BME280;26327;42.550;23.120;2023-05-23T04:07:15;92666.88;;;11.76;100.00
39681;BME280;26327;42.550;23.120;2023-05-23T04:09:41;92594.91;;;11.55;100.00
39681;BME280;26327;42.550;23.120;2023-05-23T04:12:06;92664.88;;;12.60;98.15
39681;BME280;26327;42.550;23.120;2023-05-23T04:14:33;92687.16;;;12.70;97.81
39681;BME280;26327;42.550;23.120;2023-05-23T04:16:59;92640.31;;;12.28;98.17
39681;BME280;26327;42.550;23.120;2023-05-23T04:19:25;92679.75;;;12.73;97.82
39681;BME280;26327;42.550;23.120;2023-05-23T04:21:50;92684.69;;;13.36;95.49
39681;BME280;26327;42.550;23.120;2023-05-23T04:24:16;92667.81;;;13.45;93.79
39681;BME280;26327;42.550;23.120;2023-05-23T04:26:41;92675.63;;;13.71;92.77
39681;BME280;26327;42.550;23.120;2023-05-23T04:29:07;92678.84;;;14.51;88.55
39681;BME280;26327;42.550;23.120;2023-05-23T04:31:32;92629.75;;;14.02;89.05
39681;BME280;26327;42.550;23.120;2023-05-23T04:34:00;92652.81;;;14.18;89.12
39681;BME280;26327;42.550;23.120;2023-05-23T04:36:26;92677.81;;;14.59;87.81
39681;BME280;26327;42.550;23.120;2023-05-23T04:38:51;92662.19;;;14.39;88.79
39681;BME280;26327;42.550;23.120;2023-05-23T04:41:17;92620.78;;;14.36;87.66
39681;BME280;26327;42.550;23.120;2023-05-23T04:43:47;92596.50;;;14.29;87.64
39681;BME280;26327;42.550;23.120;2023-05-23T04:46:13;92676.13;;;14.77;87.10
39681;BME280;26327;42.550;23.120;2023-05-23T04:48:38;92657.97;;;14.44;88.26
39681;BME280;26327;42.550;23.120;2023-05-23T04:51:04;92629.03;;;13.75;91.22
39681;BME280;26327;42.550;23.120;2023-05-23T04:53:33;92612.41;;;13.49;92.73
39681;BME280;26327;42.550;23.120;2023-05-23T04:56:01;92685.25;;;13.91;94.28
39681;BME280;26327;42.550;23.120;2023-05-23T04:58:26;92671.97;;;13.99;93.66
39681;BME280;26327;42.550;23.120;2023-05-23T05:00:52;92603.13;;;13.73;92.49
39681;BME280;26327;42.550;23.120;2023-05-23T05:03:17;92664.19;;;13.72;93.63
39681;BME280;26327;42.550;23.120;2023-05-23T05:05:43;92675.28;;;14.32;90.69
39681;BME280;26327;42.550;23.120;2023-05-23T05:08:08;92613.34;;;13.88;91.20
39681;BME280;26327;42.550;23.120;2023-05-23T05:10:33;92661.91;;;14.02;93.78
39681;BME280;26327;42.550;23.120;2023-05-23T05:12:59;92677.97;;;14.19;94.56
39681;BME280;26327;42.550;23.120;2023-05-23T05:15:26;92668.66;;;14.30;93.77
39681;BME280;26327;42.550;23.120;2023-05-23T05:17:51;92647.69;;;14.49;92.78
39681;BME280;26327;42.550;23.120;2023-05-23T05:20:17;92610.06;;;13.99;94.08
39681;BME280;26327;42.550;23.120;2023-05-23T05:22:42;92671.03;;;14.38;94.90
39681;BME280;26327;42.550;23.120;2023-05-23T05:25:09;92688.25;;;14.65;94.59
39681;BME280;26327;42.550;23.120;2023-05-23T05:27:35;92676.38;;;14.69;94.72
39681;BME280;26327;42.550;23.120;2023-05-23T05:30:05;92610.94;;;14.44;93.87
39681;BME280;26327;42.550;23.120;2023-05-23T05:32:32;92625.28;;;14.98;91.01
39681;BME280;26327;42.550;23.120;2023-05-23T05:35:00;92619.34;;;14.85;90.95
39681;BME280;26327;42.550;23.120;2023-05-23T05:37:26;92679.81;;;15.01;92.20
39681;BME280;26327;42.550;23.120;2023-05-23T05:39:52;92686.97;;;15.19;91.12
39681;BME280;26327;42.550;23.120;2023-05-23T05:42:19;92621.81;;;14.79;91.74
39681;BME280;26327;42.550;23.120;2023-05-23T05:44:45;92618.56;;;14.84;91.75
39681;BME280;26327;42.550;23.120;2023-05-23T05:47:10;92627.69;;;15.00;91.54
39681;BME280;26327;42.550;23.120;2023-05-23T05:49:37;92674.09;;;15.42;91.24
39681;BME280;26327;42.550;23.120;2023-05-23T05:52:02;92679.84;;;15.26;91.34
39681;BME280;26327;42.550;23.120;2023-05-23T05:54:28;92592.13;;;14.61;92.72
39681;BME280;26327;42.550;23.120;2023-05-23T05:56:53;92697.44;;;15.44;92.64
39681;BME280;26327;42.550;23.120;2023-05-23T05:59:19;92680.22;;;15.55;92.05
39681;BME280;26327;42.550;23.120;2023-05-23T06:01:45;92693.88;;;15.88;90.71
39681;BME280;26327;42.550;23.120;2023-05-23T06:04:10;92660.16;;;15.73;90.30
39681;BME280;26327;42.550;23.120;2023-05-23T06:06:35;92662.00;;;15.73;90.38
39681;BME280;26327;42.550;23.120;2023-05-23T06:09:01;92679.09;;;15.76;91.06
39681;BME280;26327;42.550;23.120;2023-05-23T06:11:26;92685.94;;;15.77;91.28
39681;BME280;26327;42.550;23.120;2023-05-23T06:13:52;92603.28;;;15.56;89.60
39681;BME280;26327;42.550;23.120;2023-05-23T06:16:17;92674.19;;;16.22;88.76
39681;BME280;26327;42.550;23.120;2023-05-23T06:18:42;92687.38;;;16.34;88.71
39681;BME280;26327;42.550;23.120;2023-05-23T06:21:08;92687.56;;;16.87;86.65
39681;BME280;26327;42.550;23.120;2023-05-23T06:23:33;92680.09;;;17.03;84.74
39681;BME280;26327;42.550;23.120;2023-05-23T06:25:59;92667.50;;;16.93;84.16
39681;BME280;26327;42.550;23.120;2023-05-23T06:28:24;92602.44;;;16.83;81.79
39681;BME280;26327;42.550;23.120;2023-05-23T06:30:50;92663.75;;;17.30;81.21
39681;BME280;26327;42.550;23.120;2023-05-23T06:33:15;92612.03;;;17.19;80.10
39681;BME280;26327;42.550;23.120;2023-05-23T06:35:41;92620.81;;;17.13;80.59
39681;BME280;26327;42.550;23.120;2023-05-23T06:38:07;92687.84;;;17.81;79.44
39681;BME280;26327;42.550;23.120;2023-05-23T06:40:32;92689.91;;;18.02;79.26
39681;BME280;26327;42.550;23.120;2023-05-23T06:42:57;92679.16;;;18.15;79.69
39681;BME280;26327;42.550;23.120;2023-05-23T06:45:23;92581.47;;;17.72;79.60
39681;BME280;26327;42.550;23.120;2023-05-23T06:47:48;92614.69;;;18.13;78.76
39681;BME280;26327;42.550;23.120;2023-05-23T06:50:14;92676.25;;;18.52;78.56
39681;BME280;26327;42.550;23.120;2023-05-23T06:52:39;92624.00;;;18.32;78.05
39681;BME280;26327;42.550;23.120;2023-05-23T06:55:07;92625.75;;;18.78;74.59
39681;BME280;26327;42.550;23.120;2023-05-23T06:57:32;92656.72;;;18.88;75.90
39681;BME280;26327;42.550;23.120;2023-05-23T06:59:58;92606.50;;;18.49;76.68
39681;BME280;26327;42.550;23.120;2023-05-23T07:02:23;92662.22;;;18.86;76.62
39681;BME280;26327;42.550;23.120;2023-05-23T07:04:48;92668.66;;;19.07;75.56
39681;BME280;26327;42.550;23.120;2023-05-23T07:07:14;92601.88;;;18.56;75.58
39681;BME280;26327;42.550;23.120;2023-05-23T07:09:39;92610.75;;;18.79;75.36
39681;BME280;26327;42.550;23.120;2023-05-23T07:12:05;92608.72;;;18.69;75.11
39681;BME280;26327;42.550;23.120;2023-05-23T07:14:31;92641.94;;;18.99;76.12
39681;BME280;26327;42.550;23.120;2023-05-23T07:16:59;92635.88;;;18.86;76.86
39681;BME280;26327;42.550;23.120;2023-05-23T07:19:25;92639.78;;;19.12;76.00
39681;BME280;26327;42.550;23.120;2023-05-23T07:21:50;92527.56;;;18.78;75.03
39681;BME280;26327;42.550;23.120;2023-05-23T07:24:15;92641.06;;;19.72;72.36
39681;BME280;26327;42.550;23.120;2023-05-23T07:26:41;92643.53;;;19.95;72.17
39681;BME280;26327;42.550;23.120;2023-05-23T07:29:06;92633.84;;;20.01;73.22
39681;BME280;26327;42.550;23.120;2023-05-23T07:31:32;92636.53;;;20.39;68.81
39681;BME280;26327;42.550;23.120;2023-05-23T07:33:57;92574.44;;;20.15;65.22
39681;BME280;26327;42.550;23.120;2023-05-23T07:36:23;92631.97;;;20.57;64.08
39681;BME280;26327;42.550;23.120;2023-05-23T07:38:48;92604.38;;;20.69;61.87
39681;BME280;26327;42.550;23.120;2023-05-23T07:41:14;92624.56;;;20.81;61.44
39681;BME280;26327;42.550;23.120;2023-05-23T07:43:39;92641.41;;;20.96;61.68
39681;BME280;26327;42.550;23.120;2023-05-23T07:46:05;92623.66;;;20.92;59.90
39681;BME280;26327;42.550;23.120;2023-05-23T07:48:30;92636.06;;;20.91;59.73
39681;BME280;26327;42.550;23.120;2023-05-23T07:50:56;92635.09;;;21.51;56.94
39681;BME280;26327;42.550;23.120;2023-05-23T07:53:21;92614.06;;;23.23;49.43
39681;BME280;26327;42.550;23.120;2023-05-23T07:55:47;92637.66;;;23.40;48.33
39681;BME280;26327;42.550;23.120;2023-05-23T07:58:12;92623.34;;;23.21;48.19
39681;BME280;26327;42.550;23.120;2023-05-23T08:00:37;92570.06;;;23.28;45.68
39681;BME280;26327;42.550;23.120;2023-05-23T08:03:05;92612.53;;;23.68;46.03
39681;BME280;26327;42.550;23.120;2023-05-23T08:05:31;92613.84;;;23.61;46.22
39681;BME280;26327;42.550;23.120;2023-05-23T08:07:56;92566.50;;;22.76;45.34
39681;BME280;26327;42.550;23.120;2023-05-23T08:10:22;92574.00;;;23.00;43.52
39681;BME280;26327;42.550;23.120;2023-05-23T08:12:47;92562.53;;;22.79;43.91
39681;BME280;26327;42.550;23.120;2023-05-23T08:15:13;92577.78;;;22.51;45.19
39681;BME280;26327;42.550;23.120;2023-05-23T08:17:38;92574.00;;;23.15;44.42
39681;BME280;26327;42.550;23.120;2023-05-23T08:20:04;92619.63;;;23.27;45.69
39681;BME280;26327;42.550;23.120;2023-05-23T08:22:29;92553.41;;;25.17;41.61
39681;BME280;26327;42.550;23.120;2023-05-23T08:24:55;92599.72;;;27.14;38.00
39681;BME280;26327;42.550;23.120;2023-05-23T08:27:21;92615.63;;;26.76;38.11
39681;BME280;26327;42.550;23.120;2023-05-23T08:29:47;92611.03;;;26.29;37.63
39681;BME280;26327;42.550;23.120;2023-05-23T08:32:13;92561.03;;;25.29;37.72
39681;BME280;26327;42.550;23.120;2023-05-23T08:34:39;92622.78;;;25.21;38.00
39681;BME280;26327;42.550;23.120;2023-05-23T08:37:04;92611.41;;;25.05;37.47
39681;BME280;26327;42.550;23.120;2023-05-23T08:39:30;92600.34;;;25.37;36.67
39681;BME280;26327;42.550;23.120;2023-05-23T08:41:55;92599.88;;;25.25;37.17
39681;BME280;26327;42.550;23.120;2023-05-23T08:44:21;92565.84;;;24.72;36.92
39681;BME280;26327;42.550;23.120;2023-05-23T08:46:46;92508.16;;;24.24;37.20
39681;BME280;26327;42.550;23.120;2023-05-23T08:49:16;92607.72;;;25.01;37.66
39681;BME280;26327;42.550;23.120;2023-05-23T08:51:42;92590.63;;;26.19;36.44
39681;BME280;26327;42.550;23.120;2023-05-23T08:54:09;92513.25;;;27.52;34.30
39681;BME280;26327;42.550;23.120;2023-05-23T08:56:37;92606.38;;;29.92;30.36
39681;BME280;26327;42.550;23.120;2023-05-23T08:59:03;92565.22;;;31.29;28.81
39681;BME280;26327;42.550;23.120;2023-05-23T09:01:29;92554.06;;;32.81;26.43
39681;BME280;26327;42.550;23.120;2023-05-23T09:03:54;92592.81;;;33.18;26.61
39681;BME280;26327;42.550;23.120;2023-05-23T09:06:20;92608.13;;;33.27;24.89
39681;BME280;26327;42.550;23.120;2023-05-23T09:08:46;92608.47;;;33.25;25.25
39681;BME280;26327;42.550;23.120;2023-05-23T09:11:12;92592.34;;;34.41;23.05
39681;BME280;26327;42.550;23.120;2023-05-23T09:13:38;92543.06;;;34.78;23.38
39681;BME280;26327;42.550;23.120;2023-05-23T09:16:09;92590.06;;;35.62;23.23
39681;BME280;26327;42.550;23.120;2023-05-23T09:18:42;92592.25;;;35.20;22.51
39681;BME280;26327;42.550;23.120;2023-05-23T09:21:09;92591.13;;;34.51;23.69
39681;BME280;26327;42.550;23.120;2023-05-23T09:23:37;92604.44;;;34.56;23.17
39681;BME280;26327;42.550;23.120;2023-05-23T09:26:08;92557.38;;;33.79;23.76
39681;BME280;26327;42.550;23.120;2023-05-23T09:28:34;92594.09;;;34.70;23.11
39681;BME280;26327;42.550;23.120;2023-05-23T09:31:01;92595.28;;;35.06;22.30
39681;BME280;26327;42.550;23.120;2023-05-23T09:36:09;92538.44;;;35.27;22.00
39681;BME280;26327;42.550;23.120;2023-05-23T09:38:39;92568.16;;;35.39;21.40
39681;BME280;26327;42.550;23.120;2023-05-23T09:41:05;92577.25;;;35.47;22.08
39681;BME280;26327;42.550;23.120;2023-05-23T09:43:31;92560.41;;;35.78;21.47
39681;BME280;26327;42.550;23.120;2023-05-23T09:46:09;92588.94;;;35.63;21.36
39681;BME280;26327;42.550;23.120;2023-05-23T09:48:35;92520.31;;;35.40;21.20
39681;BME280;26327;42.550;23.120;2023-05-23T09:51:06;92542.91;;;35.59;20.45
39681;BME280;26327;42.550;23.120;2023-05-23T09:53:31;92517.22;;;35.01;19.90
39681;BME280;26327;42.550;23.120;2023-05-23T09:56:02;92576.34;;;34.57;21.03
39681;BME280;26327;42.550;23.120;2023-05-23T09:58:28;92578.09;;;33.45;21.21
39681;BME280;26327;42.550;23.120;2023-05-23T10:00:58;92593.31;;;32.82;21.83
39681;BME280;26327;42.550;23.120;2023-05-23T10:03:33;92522.25;;;32.83;23.42
39681;BME280;26327;42.550;23.120;2023-05-23T10:06:05;92568.38;;;33.53;20.01
39681;BME280;26327;42.550;23.120;2023-05-23T10:08:38;92559.22;;;33.45;20.46
39681;BME280;26327;42.550;23.120;2023-05-23T10:11:29;92585.63;;;32.55;22.82
39681;BME280;26327;42.550;23.120;2023-05-23T10:13:55;92577.19;;;32.10;22.77
39681;BME280;26327;42.550;23.120;2023-05-23T10:16:49;92599.25;;;32.50;22.62
39681;BME280;26327;42.550;23.120;2023-05-23T10:19:37;92527.59;;;31.90;22.62
39681;BME280;26327;42.550;23.120;2023-05-23T10:22:08;92579.09;;;31.57;23.00
39681;BME280;26327;42.550;23.120;2023-05-23T10:24:35;92555.88;;;31.53;22.50
39681;BME280;26327;42.550;23.120;2023-05-23T10:27:02;92584.19;;;31.85;22.55
39681;BME280;26327;42.550;23.120;2023-05-23T10:29:28;92519.06;;;31.62;20.90
39681;BME280;26327;42.550;23.120;2023-05-23T10:31:55;92575.16;;;31.63;23.01
39681;BME280;26327;42.550;23.120;2023-05-23T10:40:10;92572.44;;;30.72;24.44
39681;BME280;26327;42.550;23.120;2023-05-23T10:45:20;92507.81;;;30.03;23.48
39681;BME280;26327;42.550;23.120;2023-05-23T10:47:47;92508.63;;;29.81;23.67
39681;BME280;26327;42.550;23.120;2023-05-23T10:50:14;92569.97;;;30.14;24.05
39681;BME280;26327;42.550;23.120;2023-05-23T10:52:41;92558.25;;;29.42;24.76
39681;BME280;26327;42.550;23.120;2023-05-23T10:55:16;92574.81;;;29.67;23.95
39681;BME280;26327;42.550;23.120;2023-05-23T10:57:43;92511.19;;;29.05;23.41
39681;BME280;26327;42.550;23.120;2023-05-23T11:00:14;92559.25;;;28.97;26.16
39681;BME280;26327;42.550;23.120;2023-05-23T11:02:52;92506.16;;;28.08;26.24
39681;BME280;26327;42.550;23.120;2023-05-23T11:05:22;92582.72;;;27.99;26.64
39681;BME280;26327;42.550;23.120;2023-05-23T11:08:10;92575.31;;;27.77;27.70
39681;BME280;26327;42.550;23.120;2023-05-23T11:11:10;92569.44;;;27.61;26.99
39681;BME280;26327;42.550;23.120;2023-05-23T11:13:57;92500.75;;;26.96;26.83
39681;BME280;26327;42.550;23.120;2023-05-23T11:16:30;92571.94;;;27.34;26.00
39681;BME280;26327;42.550;23.120;2023-05-23T11:22:03;92467.34;;;26.43;28.52
39681;BME280;26327;42.550;23.120;2023-05-23T11:24:53;92563.41;;;26.94;28.22
39681;BME280;26327;42.550;23.120;2023-05-23T11:30:14;92560.16;;;26.78;28.36
39681;BME280;26327;42.550;23.120;2023-05-23T11:32:41;92549.97;;;26.61;27.96
39681;BME280;26327;42.550;23.120;2023-05-23T11:35:08;92554.59;;;26.93;29.43
39681;BME280;26327;42.550;23.120;2023-05-23T11:37:35;92536.66;;;26.80;29.75
39681;BME280;26327;42.550;23.120;2023-05-23T11:40:31;92551.84;;;27.04;28.87
39681;BME280;26327;42.550;23.120;2023-05-23T11:42:58;92491.25;;;26.48;29.98
39681;BME280;26327;42.550;23.120;2023-05-23T11:45:25;92540.47;;;26.98;28.12
39681;BME280;26327;42.550;23.120;2023-05-23T11:47:52;92521.75;;;26.79;28.73
39681;BME280;26327;42.550;23.120;2023-05-23T11:50:17;92543.41;;;26.96;28.44
39681;BME280;26327;42.550;23.120;2023-05-23T11:52:45;92528.00;;;26.70;29.01
39681;BME280;26327;42.550;23.120;2023-05-23T11:55:18;92477.78;;;26.39;30.86
39681;BME280;26327;42.550;23.120;2023-05-23T11:57:45;92539.41;;;26.75;28.06
39681;BME280;26327;42.550;23.120;2023-05-23T12:00:11;92481.72;;;26.42;29.41
39681;BME280;26327;42.550;23.120;2023-05-23T12:02:41;92538.31;;;26.33;29.36
39681;BME280;26327;42.550;23.120;2023-05-23T12:05:11;92507.44;;;26.27;28.19
39681;BME280;26327;42.550;23.120;2023-05-23T12:07:44;92526.28;;;26.12;27.27
39681;BME280;26327;42.550;23.120;2023-05-23T12:10:11;92466.63;;;25.60;28.66
39681;BME280;26327;42.550;23.120;2023-05-23T12:12:37;92462.34;;;25.88;29.21
39681;BME280;26327;42.550;23.120;2023-05-23T12:15:05;92519.47;;;26.25;28.31
39681;BME280;26327;42.550;23.120;2023-05-23T12:17:31;92461.03;;;25.62;28.79
39681;BME280;26327;42.550;23.120;2023-05-23T12:19:57;92467.44;;;25.85;29.82
39681;BME280;26327;42.550;23.120;2023-05-23T12:22:22;92444.03;;;25.58;30.47
39681;BME280;26327;42.550;23.120;2023-05-23T12:24:55;92480.38;;;25.96;30.71
39681;BME280;26327;42.550;23.120;2023-05-23T12:27:32;92492.31;;;26.23;29.50
39681;BME280;26327;42.550;23.120;2023-05-23T12:30:12;92505.63;;;26.47;28.08
39681;BME280;26327;42.550;23.120;2023-05-23T12:32:44;92507.66;;;26.36;29.04
39681;BME280;26327;42.550;23.120;2023-05-23T12:35:12;92513.47;;;26.38;29.76
39681;BME280;26327;42.550;23.120;2023-05-23T12:37:44;92444.69;;;25.97;29.43
39681;BME280;26327;42.550;23.120;2023-05-23T12:40:16;92499.09;;;26.39;30.96
39681;BME280;26327;42.550;23.120;2023-05-23T12:42:51;92502.31;;;26.36;29.74
39681;BME280;26327;42.550;23.120;2023-05-23T12:45:18;92502.81;;;26.38;28.94
39681;BME280;26327;42.550;23.120;2023-05-23T12:47:44;92495.69;;;26.33;28.40
39681;BME280;26327;42.550;23.120;2023-05-23T12:50:10;92414.22;;;26.09;28.93
39681;BME280;26327;42.550;23.120;2023-05-23T12:52:36;92441.63;;;25.85;28.35
39681;BME280;26327;42.550;23.120;2023-05-23T12:55:02;92440.34;;;25.83;27.69
39681;BME280;26327;42.550;23.120;2023-05-23T12:57:28;92368.78;;;25.28;28.62
39681;BME280;26327;42.550;23.120;2023-05-23T12:59:53;92482.53;;;26.18;29.83
39681;BME280;26327;42.550;23.120;2023-05-23T13:02:18;92488.81;;;26.27;30.61
39681;BME280;26327;42.550;23.120;2023-05-23T13:04:44;92459.47;;;26.09;28.56
39681;BME280;26327;42.550;23.120;2023-05-23T13:07:11;92489.94;;;25.97;28.40
39681;BME280;26327;42.550;23.120;2023-05-23T13:09:39;92486.81;;;25.66;29.25
39681;BME280;26327;42.550;23.120;2023-05-23T13:12:06;92483.34;;;25.66;29.87
39681;BME280;26327;42.550;23.120;2023-05-23T13:14:32;92481.50;;;25.90;30.56